createdAt,value
2023-04-18T00:00:18.345Z,100533.21
2023-04-18T00:03:05.983Z,100526.14
2023-04-18T00:05:33.573Z,100527.70
2023-04-18T00:08:00.995Z,100521.15
2023-04-18T00:10:28.530Z,100528.08
2023-04-18T00:12:57.789Z,100520.42
2023-04-18T00:15:25.519Z,100512.13
2023-04-18T00:17:55.939Z,100512.95
2023-04-18T00:20:26.256Z,100508.81
2023-04-18T00:22:54.604Z,100506.65
2023-04-18T00:25:22.109Z,100505.81
2023-04-18T00:27:49.826Z,100499.80
2023-04-18T00:30:18.199Z,100493.91
2023-04-18T00:32:45.863Z,100492.23
2023-04-18T00:35:13.541Z,100492.09
2023-04-18T00:37:41.432Z,100491.48
2023-04-18T00:40:09.833Z,100487.54
2023-04-18T00:42:37.359Z,100487.98
2023-04-18T00:45:05.792Z,100493.59
2023-04-18T00:47:33.459Z,100492.79
2023-04-18T00:50:01.678Z,100496.19
2023-04-18T00:52:29.576Z,100495.38
2023-04-18T00:54:57.057Z,100498.75
2023-04-18T00:57:24.752Z,100496.80
2023-04-18T00:59:52.717Z,100499.46
2023-04-18T01:02:20.418Z,100498.29
2023-04-18T01:04:47.996Z,100497.21
2023-04-18T01:07:15.714Z,100496.50
2023-04-18T01:09:44.047Z,100489.98
2023-04-18T01:12:11.599Z,100487.65
2023-04-18T01:14:42.686Z,100495.35
2023-04-18T01:17:10.289Z,100491.11
2023-04-18T01:19:37.692Z,100495.06
2023-04-18T01:22:08.188Z,100491.27
2023-04-18T01:24:36.058Z,100495.94
2023-04-18T01:27:04.079Z,100498.80
2023-04-18T01:29:34.358Z,100495.66
2023-04-18T01:32:02.213Z,100496.83
2023-04-18T01:34:29.738Z,100489.14
2023-04-18T01:36:57.586Z,100487.29
2023-04-18T01:39:25.130Z,100488.95
2023-04-18T01:41:53.075Z,100488.25
2023-04-18T01:44:20.584Z,100492.74
2023-04-18T01:46:48.087Z,100494.84
2023-04-18T01:49:16.057Z,100486.13
2023-04-18T01:51:43.394Z,100491.01
2023-04-18T01:54:10.768Z,100491.95
2023-04-18T01:56:38.549Z,100489.34
2023-04-18T01:59:06.400Z,100490.83
2023-04-18T02:01:33.850Z,100494.61
2023-04-18T02:04:01.629Z,100490.31
2023-04-18T02:06:29.083Z,100489.84
2023-04-18T02:08:56.850Z,100486.48
2023-04-18T02:11:25.741Z,100483.48
2023-04-18T02:13:53.396Z,100483.80
2023-04-18T02:16:21.167Z,100485.48
2023-04-18T02:18:49.439Z,100486.40
2023-04-18T02:21:16.886Z,100487.13
2023-04-18T02:23:44.330Z,100485.74
2023-04-18T02:26:11.735Z,100483.27
2023-04-18T02:28:39.390Z,100489.25
2023-04-18T02:31:07.394Z,100484.36
2023-04-18T02:33:35.160Z,100485.77
2023-04-18T02:36:03.082Z,100487.13
2023-04-18T02:38:31.258Z,100484.31
2023-04-18T02:40:58.733Z,100486.86
2023-04-18T02:43:27.549Z,100490.82
2023-04-18T02:45:55.506Z,100485.52
2023-04-18T02:48:24.085Z,100481.14
2023-04-18T02:50:51.863Z,100479.98
2023-04-18T02:53:23.457Z,100478.70
2023-04-18T02:55:53.086Z,100474.81
2023-04-18T02:58:22.280Z,100469.08
2023-04-18T03:01:19.608Z,100465.63
2023-04-18T03:03:54.156Z,100461.42
2023-04-18T03:06:48.462Z,100467.15
2023-04-18T03:09:16.537Z,100472.48
2023-04-18T03:11:46.364Z,100478.28
2023-04-18T03:14:14.833Z,100481.14
2023-04-18T03:16:51.753Z,100486.56
2023-04-18T03:19:22.525Z,100481.35
2023-04-18T03:21:50.853Z,100480.81
2023-04-18T03:24:18.282Z,100484.19
2023-04-18T03:26:48.014Z,100484.93
2023-04-18T03:29:16.351Z,100485.09
2023-04-18T03:31:45.302Z,100488.42
2023-04-18T03:34:13.019Z,100485.72
2023-04-18T03:36:40.927Z,100487.45
2023-04-18T03:39:08.946Z,100486.34
2023-04-18T03:41:36.413Z,100486.36
2023-04-18T03:44:04.456Z,100488.25
2023-04-18T03:46:34.322Z,100489.31
2023-04-18T03:49:01.964Z,100495.05
2023-04-18T03:51:41.188Z,100489.59
2023-04-18T03:54:08.706Z,100490.69
2023-04-18T03:56:36.571Z,100487.55
2023-04-18T03:59:04.260Z,100484.56
2023-04-18T04:01:32.039Z,100485.52
2023-04-18T04:04:01.218Z,100489.73
2023-04-18T04:06:28.881Z,100490.61
2023-04-18T04:08:56.362Z,100495.36
2023-04-18T04:11:25.694Z,100497.33
2023-04-18T04:13:53.222Z,100495.52
2023-04-18T04:16:23.433Z,100495.79
2023-04-18T04:18:51.600Z,100499.73
2023-04-18T04:21:21.255Z,100494.99
2023-04-18T04:23:53.328Z,100498.48
2023-04-18T04:26:30.162Z,100502.40
2023-04-18T04:29:03.158Z,100505.77
2023-04-18T04:31:31.772Z,100507.00
2023-04-18T04:33:59.398Z,100502.75
2023-04-18T04:36:27.191Z,100510.19
2023-04-18T04:38:55.389Z,100509.76
2023-04-18T04:41:29.761Z,100514.95
2023-04-18T04:43:59.076Z,100517.11
2023-04-18T04:46:30.107Z,100524.71
2023-04-18T04:48:58.121Z,100532.17
2023-04-18T04:51:27.405Z,100530.86
2023-04-18T04:53:55.074Z,100532.70
2023-04-18T04:56:23.860Z,100536.45
2023-04-18T04:58:52.924Z,100536.61
2023-04-18T05:01:26.139Z,100536.54
2023-04-18T05:03:55.012Z,100542.77
2023-04-18T05:06:23.462Z,100534.54
2023-04-18T05:08:51.081Z,100538.87
2023-04-18T05:11:18.876Z,100537.94
2023-04-18T05:13:46.491Z,100537.08
2023-04-18T05:16:14.075Z,100539.73
2023-04-18T05:18:41.723Z,100532.08
2023-04-18T05:21:09.145Z,100534.92
2023-04-18T05:23:36.689Z,100537.61
2023-04-18T05:26:05.334Z,100541.75
2023-04-18T05:28:32.885Z,100543.14
2023-04-18T05:31:02.957Z,100540.98
2023-04-18T05:33:31.637Z,100540.50
2023-04-18T05:35:59.500Z,100537.48
2023-04-18T05:38:26.969Z,100545.17
2023-04-18T05:40:55.234Z,100545.69
2023-04-18T05:43:23.044Z,100537.66
2023-04-18T05:45:51.946Z,100540.24
2023-04-18T05:48:19.519Z,100541.64
2023-04-18T05:50:46.933Z,100536.00
2023-04-18T05:53:15.260Z,100543.33
2023-04-18T05:55:42.950Z,100544.71
2023-04-18T05:58:10.415Z,100549.34
2023-04-18T06:00:37.861Z,100542.29
2023-04-18T06:03:06.274Z,100546.94
2023-04-18T06:05:35.014Z,100542.73
2023-04-18T06:08:03.097Z,100541.48
2023-04-18T06:10:30.641Z,100545.09
2023-04-18T06:12:58.210Z,100544.96
2023-04-18T06:15:25.607Z,100546.69
2023-04-18T06:17:53.395Z,100547.48
2023-04-18T06:20:22.650Z,100545.09
2023-04-18T06:22:50.036Z,100543.50
2023-04-18T06:25:17.666Z,100548.69
2023-04-18T06:27:45.192Z,100543.55
2023-04-18T06:30:13.696Z,100551.45
2023-04-18T06:32:41.390Z,100548.86
2023-04-18T06:35:09.333Z,100552.50
2023-04-18T06:37:36.899Z,100549.16
2023-04-18T06:40:05.235Z,100545.88
2023-04-18T06:42:32.821Z,100553.02
2023-04-18T06:45:00.443Z,100553.09
2023-04-18T06:47:28.408Z,100547.71
2023-04-18T06:49:55.903Z,100557.23
2023-04-18T06:52:23.565Z,100552.17
2023-04-18T06:54:51.059Z,100552.15
2023-04-18T06:57:18.647Z,100553.56
2023-04-18T06:59:46.339Z,100550.80
2023-04-18T07:02:14.438Z,100551.05
2023-04-18T07:04:41.988Z,100555.81
2023-04-18T07:07:09.488Z,100555.60
2023-04-18T07:09:36.910Z,100558.54
2023-04-18T07:12:04.805Z,100559.83
2023-04-18T07:14:34.114Z,100560.63
2023-04-18T07:17:01.928Z,100563.46
2023-04-18T07:19:29.469Z,100557.52
2023-04-18T07:21:56.967Z,100562.96
2023-04-18T07:24:24.739Z,100570.00
2023-04-18T07:26:54.485Z,100563.66
2023-04-18T07:29:22.660Z,100566.73
2023-04-18T07:31:50.850Z,100570.55
2023-04-18T07:34:18.435Z,100572.86
2023-04-18T07:36:45.947Z,100568.77
2023-04-18T07:39:13.664Z,100572.02
2023-04-18T07:41:41.196Z,100573.63
2023-04-18T07:44:08.729Z,100577.11
2023-04-18T07:46:36.389Z,100574.34
2023-04-18T07:49:04.197Z,100573.16
2023-04-18T07:51:31.961Z,100575.45
2023-04-18T07:53:59.574Z,100580.87
2023-04-18T07:56:27.740Z,100580.05
2023-04-18T07:58:55.282Z,100582.89
2023-04-18T08:01:24.279Z,100581.48
2023-04-18T08:03:53.659Z,100577.36
2023-04-18T08:06:21.345Z,100579.69
2023-04-18T08:08:48.836Z,100583.02
2023-04-18T08:11:16.353Z,100584.15
2023-04-18T08:13:43.731Z,100586.45
2023-04-18T08:16:11.297Z,100592.04
2023-04-18T08:18:38.902Z,100592.09
2023-04-18T08:21:06.621Z,100588.55
2023-04-18T08:23:34.291Z,100591.61
2023-04-18T08:26:01.956Z,100589.91
2023-04-18T08:28:29.575Z,100592.04
2023-04-18T08:30:57.089Z,100598.06
2023-04-18T08:33:24.805Z,100597.63
2023-04-18T08:35:52.400Z,100601.20
2023-04-18T08:38:20.202Z,100604.17
2023-04-18T08:40:47.714Z,100601.44
2023-04-18T08:43:15.446Z,100604.98
2023-04-18T08:45:44.818Z,100608.59
2023-04-18T08:48:17.115Z,100601.75
2023-04-18T08:50:44.996Z,100600.88
2023-04-18T08:53:12.933Z,100603.50
2023-04-18T08:55:41.592Z,100605.85
2023-04-18T08:58:11.880Z,100603.58
2023-04-18T09:00:39.453Z,100604.19
2023-04-18T09:03:07.200Z,100605.97
2023-04-18T09:05:35.126Z,100606.67
2023-04-18T09:08:21.704Z,100608.11
2023-04-18T09:10:49.911Z,100603.91
2023-04-18T09:13:39.006Z,100612.11
2023-04-18T09:16:06.802Z,100614.31
2023-04-18T09:18:34.736Z,100609.98
2023-04-18T09:21:20.392Z,100609.84
2023-04-18T09:23:49.867Z,100607.77
2023-04-18T09:26:34.411Z,100612.46
2023-04-18T09:29:02.774Z,100611.85
2023-04-18T09:31:30.466Z,100610.75
2023-04-18T09:33:58.167Z,100614.00
2023-04-18T09:36:27.528Z,100613.13
2023-04-18T09:38:56.881Z,100607.35
2023-04-18T09:41:24.750Z,100614.84
2023-04-18T09:44:15.502Z,100611.45
2023-04-18T09:46:47.188Z,100610.95
2023-04-18T09:49:17.122Z,100615.80
2023-04-18T09:51:45.746Z,100617.63
2023-04-18T09:54:16.344Z,100611.14
2023-04-18T09:56:45.582Z,100608.48
2023-04-18T09:59:21.108Z,100606.52
2023-04-18T10:01:50.213Z,100616.33
2023-04-18T10:04:18.741Z,100611.69
2023-04-18T10:06:46.804Z,100615.48
2023-04-18T10:09:15.781Z,100615.84
2023-04-18T10:11:44.080Z,100612.64
2023-04-18T10:14:15.208Z,100614.63
2023-04-18T10:16:48.503Z,100613.85
2023-04-18T10:19:29.020Z,100613.13
2023-04-18T10:21:59.039Z,100604.80
2023-04-18T10:24:45.470Z,100601.67
2023-04-18T10:27:13.302Z,100603.38
2023-04-18T10:29:53.112Z,100594.95
2023-04-18T10:32:24.044Z,100598.04
2023-04-18T10:34:53.921Z,100589.73
2023-04-18T10:37:21.248Z,100587.20
2023-04-18T10:40:02.419Z,100588.42
2023-04-18T10:42:48.015Z,100577.40
2023-04-18T10:45:24.205Z,100571.02
2023-04-18T10:48:34.258Z,100569.35
2023-04-18T10:51:20.350Z,100557.42
2023-04-18T10:53:59.899Z,100558.34
2023-04-18T10:56:28.649Z,100567.51
2023-04-18T10:59:00.871Z,100571.90
2023-04-18T11:01:33.004Z,100572.73
2023-04-18T11:04:01.089Z,100572.21
2023-04-18T11:06:30.757Z,100579.29
2023-04-18T11:09:13.929Z,100576.77
2023-04-18T11:11:43.643Z,100579.54
2023-04-18T11:14:11.375Z,100579.73
2023-04-18T11:16:39.923Z,100578.94
2023-04-18T11:19:26.085Z,100576.66
2023-04-18T11:22:00.755Z,100572.46
2023-04-18T11:24:28.943Z,100572.34
2023-04-18T11:26:56.529Z,100572.83
2023-04-18T11:29:24.136Z,100573.08
2023-04-18T11:31:58.497Z,100572.64
2023-04-18T11:34:30.922Z,100570.69
2023-04-18T11:36:59.206Z,100568.58
2023-04-18T11:39:26.855Z,100578.05
2023-04-18T11:41:56.417Z,100575.23
2023-04-18T11:44:25.073Z,100576.33
2023-04-18T11:46:53.532Z,100573.79
2023-04-18T11:49:32.315Z,100572.08
2023-04-18T11:52:00.849Z,100579.16
2023-04-18T11:54:43.451Z,100574.36
2023-04-18T11:57:26.780Z,100569.02
2023-04-18T12:00:00.285Z,100569.14
2023-04-18T12:02:41.330Z,100568.63
2023-04-18T12:05:10.249Z,100563.45
2023-04-18T12:07:41.105Z,100567.34
2023-04-18T12:10:29.441Z,100567.39
2023-04-18T12:12:58.713Z,100566.77
2023-04-18T12:15:28.877Z,100565.91
2023-04-18T12:18:02.205Z,100564.43
2023-04-18T12:20:51.827Z,100565.23
2023-04-18T12:23:33.350Z,100560.48
2023-04-18T12:26:06.736Z,100556.48
2023-04-18T12:28:35.269Z,100562.96
2023-04-18T12:31:06.674Z,100567.46
2023-04-18T12:33:36.153Z,100564.11
2023-04-18T12:36:08.119Z,100563.05
2023-04-18T12:38:35.830Z,100565.19
2023-04-18T12:41:03.518Z,100563.60
2023-04-18T12:43:31.049Z,100557.27
2023-04-18T12:45:59.156Z,100559.45
2023-04-18T12:48:26.607Z,100554.46
2023-04-18T12:50:54.626Z,100550.02
2023-04-18T12:53:22.223Z,100549.21
2023-04-18T12:55:49.670Z,100546.39
2023-04-18T12:58:18.191Z,100549.57
2023-04-18T13:00:45.976Z,100550.13
2023-04-18T13:03:13.756Z,100546.01
2023-04-18T13:05:41.650Z,100549.92
2023-04-18T13:08:16.876Z,100551.91
2023-04-18T13:10:46.985Z,100552.88
2023-04-18T13:13:14.560Z,100547.85
2023-04-18T13:15:42.147Z,100551.98
2023-04-18T13:18:09.756Z,100552.20
2023-04-18T13:20:37.258Z,100552.11
2023-04-18T13:23:05.051Z,100552.96
2023-04-18T13:25:32.804Z,100557.63
2023-04-18T13:28:00.433Z,100552.81
2023-04-18T13:30:27.966Z,100555.40
2023-04-18T13:32:56.203Z,100561.09
2023-04-18T13:35:23.817Z,100555.02
2023-04-18T13:37:51.566Z,100554.98
2023-04-18T13:40:19.121Z,100553.89
2023-04-18T13:42:46.563Z,100556.87
2023-04-18T13:45:14.045Z,100554.19
2023-04-18T13:47:41.507Z,100552.84
2023-04-18T13:50:09.559Z,100554.84
2023-04-18T13:52:37.010Z,100555.04
2023-04-18T13:55:05.242Z,100551.95
2023-04-18T13:57:33.118Z,100555.73
2023-04-18T14:00:00.666Z,100557.39
2023-04-18T14:02:28.433Z,100554.23
2023-04-18T14:04:57.626Z,100553.59
2023-04-18T14:07:25.166Z,100553.58
2023-04-18T14:09:53.887Z,100552.02
2023-04-18T14:12:21.940Z,100560.02
2023-04-18T14:14:49.397Z,100557.52
2023-04-18T14:17:16.877Z,100553.27
2023-04-18T14:19:44.456Z,100552.48
2023-04-18T14:22:11.991Z,100557.20
2023-04-18T14:24:39.578Z,100557.52
2023-04-18T14:27:07.138Z,100555.94
2023-04-18T14:29:34.983Z,100558.29
2023-04-18T14:32:02.659Z,100558.45
2023-04-18T14:34:31.213Z,100565.01
2023-04-18T14:37:01.085Z,100561.12
2023-04-18T14:39:28.592Z,100564.45
2023-04-18T14:41:57.160Z,100561.23
2023-04-18T14:44:25.068Z,100556.27
2023-04-18T14:46:52.726Z,100554.70
2023-04-18T14:49:20.453Z,100556.41
2023-04-18T14:51:47.939Z,100556.04
2023-04-18T14:54:15.734Z,100554.23
2023-04-18T14:56:43.091Z,100554.52
2023-04-18T14:59:14.853Z,100556.30
2023-04-18T15:01:44.268Z,100557.80
2023-04-18T15:04:12.215Z,100553.23
2023-04-18T15:06:40.153Z,100554.10
2023-04-18T15:09:07.665Z,100548.75
2023-04-18T15:11:35.165Z,100556.74
2023-04-18T15:14:02.770Z,100556.06
2023-04-18T15:16:31.654Z,100558.67
2023-04-18T15:18:59.882Z,100557.19
2023-04-18T15:21:27.351Z,100559.77
2023-04-18T15:23:54.954Z,100561.58
2023-04-18T15:26:23.708Z,100561.33
2023-04-18T15:28:54.030Z,100565.83
2023-04-18T15:31:21.671Z,100565.80
2023-04-18T15:33:49.375Z,100559.80
2023-04-18T15:36:16.753Z,100558.45
2023-04-18T15:38:44.264Z,100559.98
2023-04-18T15:41:11.938Z,100556.61
2023-04-18T15:43:41.428Z,100554.94
2023-04-18T15:46:09.309Z,100550.66
2023-04-18T15:48:37.002Z,100548.44
2023-04-18T15:51:04.807Z,100553.45
2023-04-18T15:53:32.494Z,100553.21
2023-04-18T15:56:01.391Z,100550.26
2023-04-18T15:58:29.780Z,100548.60
2023-04-18T16:00:58.375Z,100557.11
2023-04-18T16:03:26.620Z,100556.44
2023-04-18T16:05:54.830Z,100553.27
2023-04-18T16:08:22.882Z,100552.67
2023-04-18T16:10:52.696Z,100552.09
2023-04-18T16:13:20.531Z,100557.29
2023-04-18T16:15:48.421Z,100554.92
2023-04-18T16:18:16.078Z,100551.42
2023-04-18T16:20:43.639Z,100551.92
2023-04-18T16:23:10.985Z,100554.67
2023-04-18T16:25:38.542Z,100550.68
2023-04-18T16:28:06.006Z,100547.77
2023-04-18T16:30:33.612Z,100549.38
2023-04-18T16:33:01.404Z,100543.05
2023-04-18T16:35:29.135Z,100542.70
2023-04-18T16:37:56.886Z,100544.46
2023-04-18T16:40:29.845Z,100544.35
2023-04-18T16:42:58.146Z,100543.81
2023-04-18T16:45:25.761Z,100544.44
2023-04-18T16:47:53.585Z,100545.42
2023-04-18T16:50:22.252Z,100546.38
2023-04-18T16:52:50.007Z,100551.95
2023-04-18T16:55:17.620Z,100556.21
2023-04-18T16:57:45.268Z,100556.52
2023-04-18T17:00:14.131Z,100556.27
2023-04-18T17:02:42.847Z,100559.64
2023-04-18T17:05:10.685Z,100561.32
2023-04-18T17:07:38.169Z,100553.95
2023-04-18T17:10:07.767Z,100557.23
2023-04-18T17:12:37.059Z,100556.70
2023-04-18T17:15:05.362Z,100556.48
2023-04-18T17:17:33.106Z,100561.66
2023-04-18T17:20:00.947Z,100557.75
2023-04-18T17:22:28.971Z,100557.34
2023-04-18T17:24:56.410Z,100557.38
2023-04-18T17:27:24.041Z,100559.45
2023-04-18T17:29:51.652Z,100560.34
2023-04-18T17:32:19.176Z,100557.67
2023-04-18T17:34:47.120Z,100559.61
2023-04-18T17:37:16.432Z,100559.35
2023-04-18T17:39:44.200Z,100561.23
2023-04-18T17:42:11.803Z,100554.21
2023-04-18T17:44:39.654Z,100550.30
2023-04-18T17:47:07.608Z,100554.86
2023-04-18T17:49:35.539Z,100557.11
2023-04-18T17:52:03.955Z,100559.22
2023-04-18T17:54:32.427Z,100558.89
2023-04-18T17:57:01.360Z,100560.67
2023-04-18T17:59:29.224Z,100556.88
2023-04-18T18:01:57.120Z,100563.63
2023-04-18T18:04:26.689Z,100563.81
2023-04-18T18:06:55.766Z,100561.96
2023-04-18T18:09:23.420Z,100556.45
2023-04-18T18:11:50.993Z,100560.90
2023-04-18T18:14:19.697Z,100555.67
2023-04-18T18:16:47.432Z,100557.90
2023-04-18T18:19:16.103Z,100550.02
2023-04-18T18:21:43.942Z,100550.33
2023-04-18T18:24:11.461Z,100543.15
2023-04-18T18:26:39.309Z,100542.69
2023-04-18T18:29:10.739Z,100540.20
2023-04-18T18:31:38.720Z,100542.04
2023-04-18T18:34:06.280Z,100538.69
2023-04-18T18:36:34.025Z,100537.69
2023-04-18T18:39:01.688Z,100531.50
2023-04-18T18:41:29.455Z,100529.57
2023-04-18T18:43:57.295Z,100528.90
2023-04-18T18:46:26.654Z,100526.47
2023-04-18T18:48:54.251Z,100523.48
2023-04-18T18:51:23.252Z,100523.15
2023-04-18T18:53:50.904Z,100517.31
2023-04-18T18:56:18.739Z,100510.18
2023-04-18T18:58:46.497Z,100512.84
2023-04-18T19:01:13.960Z,100517.64
2023-04-18T19:03:41.644Z,100511.50
2023-04-18T19:06:09.453Z,100511.44
2023-04-18T19:08:36.913Z,100509.24
2023-04-18T19:11:04.482Z,100508.46
2023-04-18T19:13:32.087Z,100510.48
2023-04-18T19:15:59.651Z,100506.77
2023-04-18T19:18:27.323Z,100504.27
2023-04-18T19:20:54.867Z,100508.80
2023-04-18T19:23:24.589Z,100507.68
2023-04-18T19:25:52.173Z,100499.40
2023-04-18T19:28:21.190Z,100501.83
2023-04-18T19:30:49.153Z,100497.90
2023-04-18T19:33:17.042Z,100497.70
2023-04-18T19:35:44.600Z,100494.80
2023-04-18T19:38:12.110Z,100487.54
2023-04-18T19:40:39.913Z,100487.40
2023-04-18T19:43:07.698Z,100489.02
2023-04-18T19:45:35.699Z,100486.66
2023-04-18T19:48:03.671Z,100483.27
2023-04-18T19:50:31.507Z,100484.83
2023-04-18T19:52:59.207Z,100482.61
2023-04-18T19:55:26.796Z,100482.16
2023-04-18T19:57:58.387Z,100475.37
2023-04-18T20:00:26.430Z,100478.36
2023-04-18T20:02:54.297Z,100481.13
2023-04-18T20:05:22.101Z,100474.43
2023-04-18T20:07:50.045Z,100472.48
2023-04-18T20:10:23.092Z,100468.75
2023-04-18T20:12:50.683Z,100471.54
2023-04-18T20:15:18.178Z,100470.48
2023-04-18T20:17:45.791Z,100468.06
2023-04-18T20:20:13.419Z,100467.20
2023-04-18T20:22:42.555Z,100469.21
2023-04-18T20:25:10.272Z,100459.63
2023-04-18T20:27:37.786Z,100460.85
2023-04-18T20:30:06.428Z,100460.19
2023-04-18T20:32:34.271Z,100456.71
2023-04-18T20:35:02.396Z,100450.13
2023-04-18T20:37:30.006Z,100449.84
2023-04-18T20:39:58.236Z,100447.74
2023-04-18T20:42:26.775Z,100450.54
2023-04-18T20:44:54.427Z,100437.20
2023-04-18T20:47:22.006Z,100440.22
2023-04-18T20:49:49.619Z,100433.17
2023-04-18T20:52:17.231Z,100438.68
2023-04-18T20:54:44.654Z,100432.55
2023-04-18T20:57:12.280Z,100433.52
2023-04-18T20:59:39.995Z,100434.83
2023-04-18T21:02:08.030Z,100427.65
2023-04-18T21:04:35.766Z,100431.67
2023-04-18T21:07:03.514Z,100429.98
2023-04-18T21:09:35.850Z,100421.30
2023-04-18T21:12:05.068Z,100420.05
2023-04-18T21:14:32.879Z,100414.37
2023-04-18T21:17:01.236Z,100409.73
2023-04-18T21:19:28.878Z,100407.73
2023-04-18T21:21:56.522Z,100404.17
2023-04-18T21:24:24.094Z,100406.93
2023-04-18T21:26:51.718Z,100403.70
2023-04-18T21:29:21.098Z,100401.77
2023-04-18T21:31:49.774Z,100401.81
2023-04-18T21:34:17.569Z,100400.05
2023-04-18T21:36:45.317Z,100394.25
2023-04-18T21:39:12.719Z,100399.16
2023-04-18T21:41:40.973Z,100394.20
2023-04-18T21:44:08.417Z,100394.30
2023-04-18T21:46:36.342Z,100395.68
2023-04-18T21:49:03.700Z,100389.71
2023-04-18T21:51:31.590Z,100387.44
2023-04-18T21:53:59.273Z,100389.88
2023-04-18T21:56:26.862Z,100389.23
2023-04-18T21:58:54.406Z,100391.33
2023-04-18T22:01:21.888Z,100384.45
2023-04-18T22:03:49.823Z,100385.97
2023-04-18T22:06:17.531Z,100384.09
2023-04-18T22:08:45.027Z,100379.61
2023-04-18T22:11:13.058Z,100375.29
2023-04-18T22:13:44.270Z,100373.45
2023-04-18T22:16:11.929Z,100368.02
2023-04-18T22:18:39.722Z,100367.38
2023-04-18T22:21:09.524Z,100370.55
2023-04-18T22:23:37.041Z,100365.80
2023-04-18T22:26:04.751Z,100363.13
2023-04-18T22:28:33.567Z,100362.39
2023-04-18T22:31:01.066Z,100363.77
2023-04-18T22:33:28.868Z,100354.79
2023-04-18T22:35:56.496Z,100356.00
2023-04-18T22:38:25.223Z,100349.71
2023-04-18T22:40:52.817Z,100343.80
2023-04-18T22:43:23.103Z,100344.98
2023-04-18T22:45:51.143Z,100337.38
2023-04-18T22:48:18.869Z,100339.58
2023-04-18T22:50:46.866Z,100335.14
2023-04-18T22:53:15.435Z,100334.85
2023-04-18T22:55:44.399Z,100329.80
2023-04-18T22:58:12.231Z,100322.86
2023-04-18T23:00:43.424Z,100313.23
2023-04-18T23:03:15.696Z,100308.23
2023-04-18T23:05:43.440Z,100297.71
2023-04-18T23:08:11.522Z,100299.27
2023-04-18T23:10:39.045Z,100291.16
2023-04-18T23:13:06.652Z,100289.98
2023-04-18T23:15:34.134Z,100289.88
2023-04-18T23:18:01.793Z,100285.83
2023-04-18T23:20:29.283Z,100284.92
2023-04-18T23:22:56.811Z,100287.05
2023-04-18T23:25:24.420Z,100287.79
2023-04-18T23:27:51.985Z,100286.31
2023-04-18T23:30:19.456Z,100288.11
2023-04-18T23:32:47.015Z,100288.14
2023-04-18T23:35:14.569Z,100276.52
2023-04-18T23:37:42.090Z,100271.98
2023-04-18T23:40:10.592Z,100267.39
2023-04-18T23:42:38.082Z,100264.98
2023-04-18T23:45:06.347Z,100262.02
2023-04-18T23:47:34.135Z,100260.50
2023-04-18T23:50:01.918Z,100257.85
2023-04-18T23:52:29.441Z,100266.02
2023-04-18T23:55:00.758Z,100264.53
2023-04-18T23:57:28.396Z,100259.05
2023-04-18T23:59:55.958Z,100258.41
